Hunting Valley, Ohio
Current Conditions -  °F | °C
As of 2:45 PM on Thursday 18 Dec 2014 (Local Time) from KCGF Reporting Station
Overcast Overcast  
Wind Chill: 23°   Ceiling: 1300
Heat Index: 32°   Visibility: 10mi
Dew Point: 27°   Wind: 12mph
Humidity: 80%   Direction: 250°WSW
Pressure: 30.16"   Gusts: NA
Location:  41.4475°N, 81.4018°W
Report Text: KCGF 181945Z 25010KT 10SM OVC013 00/M03 A3016
Loading
Personal Weather Stations






























Interactive Weather Map New forecast layout! Learn more

10-Day Weather Forecast

Advertisements
Track Severe Weather on mobile